sensor_id;sensor_type;location;lat;lon;timestamp;P1;durP1;ratioP1;P2;durP2;ratioP2
67798;SDS011;54596;43.216;27.904;2023-05-18T00:02:05;13.52;;;3.22;;
67798;SDS011;54596;43.216;27.904;2023-05-18T00:04:31;11.40;;;3.20;;
67798;SDS011;54596;43.216;27.904;2023-05-18T00:06:58;12.13;;;3.22;;
67798;SDS011;54596;43.216;27.904;2023-05-18T00:09:27;10.55;;;2.95;;
67798;SDS011;54596;43.216;27.904;2023-05-18T00:11:54;12.75;;;3.17;;
67798;SDS011;54596;43.216;27.904;2023-05-18T00:14:20;16.92;;;3.55;;
67798;SDS011;54596;43.216;27.904;2023-05-18T00:16:46;12.65;;;3.03;;
67798;SDS011;54596;43.216;27.904;2023-05-18T00:19:12;11.55;;;3.47;;
67798;SDS011;54596;43.216;27.904;2023-05-18T00:21:42;11.23;;;3.08;;
67798;SDS011;54596;43.216;27.904;2023-05-18T00:24:18;8.35;;;3.10;;
67798;SDS011;54596;43.216;27.904;2023-05-18T00:26:44;10.48;;;3.30;;
67798;SDS011;54596;43.216;27.904;2023-05-18T00:29:11;12.10;;;2.95;;
67798;SDS011;54596;43.216;27.904;2023-05-18T00:31:37;8.65;;;2.88;;
67798;SDS011;54596;43.216;27.904;2023-05-18T00:34:06;9.90;;;2.70;;
67798;SDS011;54596;43.216;27.904;2023-05-18T00:36:31;10.73;;;2.95;;
67798;SDS011;54596;43.216;27.904;2023-05-18T00:38:58;11.18;;;2.97;;
67798;SDS011;54596;43.216;27.904;2023-05-18T00:41:24;10.68;;;3.03;;
67798;SDS011;54596;43.216;27.904;2023-05-18T00:43:51;11.43;;;3.05;;
67798;SDS011;54596;43.216;27.904;2023-05-18T00:46:20;11.57;;;3.00;;
67798;SDS011;54596;43.216;27.904;2023-05-18T00:48:46;10.10;;;2.90;;
67798;SDS011;54596;43.216;27.904;2023-05-18T00:51:13;9.25;;;2.78;;
67798;SDS011;54596;43.216;27.904;2023-05-18T00:53:39;11.30;;;2.95;;
67798;SDS011;54596;43.216;27.904;2023-05-18T00:56:05;10.68;;;3.03;;
67798;SDS011;54596;43.216;27.904;2023-05-18T00:58:31;11.02;;;3.10;;
67798;SDS011;54596;43.216;27.904;2023-05-18T01:00:57;10.48;;;3.10;;
67798;SDS011;54596;43.216;27.904;2023-05-18T01:03:22;11.00;;;3.15;;
67798;SDS011;54596;43.216;27.904;2023-05-18T01:05:50;11.38;;;2.85;;
67798;SDS011;54596;43.216;27.904;2023-05-18T01:08:28;10.77;;;2.88;;
67798;SDS011;54596;43.216;27.904;2023-05-18T01:10:55;10.90;;;3.17;;
67798;SDS011;54596;43.216;27.904;2023-05-18T01:13:34;10.13;;;2.85;;
67798;SDS011;54596;43.216;27.904;2023-05-18T01:16:11;9.45;;;2.80;;
67798;SDS011;54596;43.216;27.904;2023-05-18T01:18:46;10.95;;;2.97;;
67798;SDS011;54596;43.216;27.904;2023-05-18T01:21:30;9.75;;;2.80;;
67798;SDS011;54596;43.216;27.904;2023-05-18T01:27:02;11.70;;;2.85;;
67798;SDS011;54596;43.216;27.904;2023-05-18T01:29:32;10.00;;;2.67;;
67798;SDS011;54596;43.216;27.904;2023-05-18T01:31:58;12.13;;;3.03;;
67798;SDS011;54596;43.216;27.904;2023-05-18T01:34:23;9.07;;;2.80;;
67798;SDS011;54596;43.216;27.904;2023-05-18T01:36:49;9.93;;;2.60;;
67798;SDS011;54596;43.216;27.904;2023-05-18T01:39:15;13.15;;;2.85;;
67798;SDS011;54596;43.216;27.904;2023-05-18T01:41:43;8.50;;;2.45;;
67798;SDS011;54596;43.216;27.904;2023-05-18T01:44:22;9.10;;;2.75;;
67798;SDS011;54596;43.216;27.904;2023-05-18T01:52:12;10.20;;;2.70;;
67798;SDS011;54596;43.216;27.904;2023-05-18T01:54:43;10.60;;;2.80;;
67798;SDS011;54596;43.216;27.904;2023-05-18T01:57:10;10.02;;;2.47;;
67798;SDS011;54596;43.216;27.904;2023-05-18T01:59:36;10.75;;;2.85;;
67798;SDS011;54596;43.216;27.904;2023-05-18T02:02:02;9.10;;;2.80;;
67798;SDS011;54596;43.216;27.904;2023-05-18T02:04:29;7.88;;;2.65;;
67798;SDS011;54596;43.216;27.904;2023-05-18T02:06:54;8.20;;;2.65;;
67798;SDS011;54596;43.216;27.904;2023-05-18T02:09:20;9.07;;;2.67;;
67798;SDS011;54596;43.216;27.904;2023-05-18T02:11:46;7.07;;;2.50;;
67798;SDS011;54596;43.216;27.904;2023-05-18T02:14:12;9.60;;;2.80;;
67798;SDS011;54596;43.216;27.904;2023-05-18T02:16:38;9.82;;;2.70;;
67798;SDS011;54596;43.216;27.904;2023-05-18T02:19:04;8.00;;;2.70;;
67798;SDS011;54596;43.216;27.904;2023-05-18T02:21:29;10.02;;;2.83;;
67798;SDS011;54596;43.216;27.904;2023-05-18T02:23:55;9.15;;;2.80;;
67798;SDS011;54596;43.216;27.904;2023-05-18T02:26:20;10.23;;;2.70;;
67798;SDS011;54596;43.216;27.904;2023-05-18T02:28:46;8.82;;;2.70;;
67798;SDS011;54596;43.216;27.904;2023-05-18T02:31:12;11.82;;;2.70;;
67798;SDS011;54596;43.216;27.904;2023-05-18T02:33:38;10.27;;;2.80;;
67798;SDS011;54596;43.216;27.904;2023-05-18T02:36:08;11.45;;;2.80;;
67798;SDS011;54596;43.216;27.904;2023-05-18T02:38:37;10.85;;;2.70;;
67798;SDS011;54596;43.216;27.904;2023-05-18T02:41:04;7.25;;;2.67;;
67798;SDS011;54596;43.216;27.904;2023-05-18T02:43:30;9.32;;;2.47;;
67798;SDS011;54596;43.216;27.904;2023-05-18T02:45:55;9.77;;;2.72;;
67798;SDS011;54596;43.216;27.904;2023-05-18T02:48:21;7.82;;;2.65;;
67798;SDS011;54596;43.216;27.904;2023-05-18T02:50:50;7.95;;;2.60;;
67798;SDS011;54596;43.216;27.904;2023-05-18T02:53:15;10.30;;;2.90;;
67798;SDS011;54596;43.216;27.904;2023-05-18T02:55:41;6.65;;;2.67;;
67798;SDS011;54596;43.216;27.904;2023-05-18T02:58:07;10.43;;;2.90;;
67798;SDS011;54596;43.216;27.904;2023-05-18T03:00:33;11.80;;;2.92;;
67798;SDS011;54596;43.216;27.904;2023-05-18T03:02:59;9.43;;;2.90;;
67798;SDS011;54596;43.216;27.904;2023-05-18T03:05:25;8.73;;;2.90;;
67798;SDS011;54596;43.216;27.904;2023-05-18T03:07:51;9.27;;;2.60;;
67798;SDS011;54596;43.216;27.904;2023-05-18T03:10:18;9.23;;;2.90;;
67798;SDS011;54596;43.216;27.904;2023-05-18T03:12:44;10.82;;;3.17;;
67798;SDS011;54596;43.216;27.904;2023-05-18T03:15:10;9.48;;;2.67;;
67798;SDS011;54596;43.216;27.904;2023-05-18T03:17:38;9.05;;;3.00;;
67798;SDS011;54596;43.216;27.904;2023-05-18T03:20:07;10.85;;;2.70;;
67798;SDS011;54596;43.216;27.904;2023-05-18T03:22:35;11.02;;;3.10;;
67798;SDS011;54596;43.216;27.904;2023-05-18T03:25:02;10.30;;;2.95;;
67798;SDS011;54596;43.216;27.904;2023-05-18T03:27:28;7.70;;;3.10;;
67798;SDS011;54596;43.216;27.904;2023-05-18T03:29:54;10.82;;;3.13;;
67798;SDS011;54596;43.216;27.904;2023-05-18T03:32:21;7.65;;;2.83;;
67798;SDS011;54596;43.216;27.904;2023-05-18T03:34:47;12.13;;;3.95;;
67798;SDS011;54596;43.216;27.904;2023-05-18T03:37:12;7.65;;;2.80;;
67798;SDS011;54596;43.216;27.904;2023-05-18T03:39:39;9.27;;;3.08;;
67798;SDS011;54596;43.216;27.904;2023-05-18T03:42:05;13.57;;;6.55;;
67798;SDS011;54596;43.216;27.904;2023-05-18T03:44:30;11.43;;;3.65;;
67798;SDS011;54596;43.216;27.904;2023-05-18T03:46:56;10.55;;;3.25;;
67798;SDS011;54596;43.216;27.904;2023-05-18T03:49:21;10.15;;;3.17;;
67798;SDS011;54596;43.216;27.904;2023-05-18T03:51:47;12.38;;;3.53;;
67798;SDS011;54596;43.216;27.904;2023-05-18T03:54:12;15.27;;;4.65;;
67798;SDS011;54596;43.216;27.904;2023-05-18T03:56:38;11.90;;;4.03;;
67798;SDS011;54596;43.216;27.904;2023-05-18T03:59:03;13.57;;;3.53;;
67798;SDS011;54596;43.216;27.904;2023-05-18T04:01:30;10.68;;;2.92;;
67798;SDS011;54596;43.216;27.904;2023-05-18T04:03:56;11.80;;;3.30;;
67798;SDS011;54596;43.216;27.904;2023-05-18T04:06:22;14.48;;;3.05;;
67798;SDS011;54596;43.216;27.904;2023-05-18T04:08:50;11.43;;;3.75;;
67798;SDS011;54596;43.216;27.904;2023-05-18T04:11:16;13.40;;;3.10;;
67798;SDS011;54596;43.216;27.904;2023-05-18T04:13:41;12.55;;;3.72;;
67798;SDS011;54596;43.216;27.904;2023-05-18T04:16:07;13.10;;;3.40;;
67798;SDS011;54596;43.216;27.904;2023-05-18T04:18:37;12.85;;;3.92;;
67798;SDS011;54596;43.216;27.904;2023-05-18T04:21:06;10.27;;;3.75;;
67798;SDS011;54596;43.216;27.904;2023-05-18T04:23:31;12.90;;;3.25;;
67798;SDS011;54596;43.216;27.904;2023-05-18T04:26:03;11.35;;;3.35;;
67798;SDS011;54596;43.216;27.904;2023-05-18T04:28:31;13.95;;;3.58;;
67798;SDS011;54596;43.216;27.904;2023-05-18T04:30:57;11.85;;;3.80;;
67798;SDS011;54596;43.216;27.904;2023-05-18T04:33:23;15.48;;;3.75;;
67798;SDS011;54596;43.216;27.904;2023-05-18T04:35:50;15.75;;;4.35;;
67798;SDS011;54596;43.216;27.904;2023-05-18T04:38:24;12.55;;;3.33;;
67798;SDS011;54596;43.216;27.904;2023-05-18T04:40:49;13.63;;;4.00;;
67798;SDS011;54596;43.216;27.904;2023-05-18T04:43:16;10.77;;;3.45;;
67798;SDS011;54596;43.216;27.904;2023-05-18T04:45:42;15.93;;;3.85;;
67798;SDS011;54596;43.216;27.904;2023-05-18T04:48:14;17.50;;;5.90;;
67798;SDS011;54596;43.216;27.904;2023-05-18T04:50:42;15.30;;;4.05;;
67798;SDS011;54596;43.216;27.904;2023-05-18T04:53:07;18.13;;;4.40;;
67798;SDS011;54596;43.216;27.904;2023-05-18T04:55:33;18.58;;;9.25;;
67798;SDS011;54596;43.216;27.904;2023-05-18T04:57:59;13.55;;;5.15;;
67798;SDS011;54596;43.216;27.904;2023-05-18T05:00:27;17.35;;;7.03;;
67798;SDS011;54596;43.216;27.904;2023-05-18T05:02:54;13.73;;;3.67;;
67798;SDS011;54596;43.216;27.904;2023-05-18T05:05:23;14.38;;;3.30;;
67798;SDS011;54596;43.216;27.904;2023-05-18T05:07:50;16.42;;;3.80;;
67798;SDS011;54596;43.216;27.904;2023-05-18T05:10:16;19.45;;;3.97;;
67798;SDS011;54596;43.216;27.904;2023-05-18T05:12:43;12.73;;;3.58;;
67798;SDS011;54596;43.216;27.904;2023-05-18T05:15:08;13.13;;;3.63;;
67798;SDS011;54596;43.216;27.904;2023-05-18T05:17:34;11.35;;;3.83;;
67798;SDS011;54596;43.216;27.904;2023-05-18T05:19:59;15.75;;;3.30;;
67798;SDS011;54596;43.216;27.904;2023-05-18T05:22:25;12.13;;;3.33;;
67798;SDS011;54596;43.216;27.904;2023-05-18T05:24:50;17.25;;;3.50;;
67798;SDS011;54596;43.216;27.904;2023-05-18T05:27:16;14.45;;;3.47;;
67798;SDS011;54596;43.216;27.904;2023-05-18T05:29:44;12.98;;;3.45;;
67798;SDS011;54596;43.216;27.904;2023-05-18T05:32:10;13.88;;;3.55;;
67798;SDS011;54596;43.216;27.904;2023-05-18T05:34:37;15.38;;;3.67;;
67798;SDS011;54596;43.216;27.904;2023-05-18T05:37:03;13.02;;;3.40;;
67798;SDS011;54596;43.216;27.904;2023-05-18T05:39:28;12.68;;;3.38;;
67798;SDS011;54596;43.216;27.904;2023-05-18T05:41:54;9.50;;;3.63;;
67798;SDS011;54596;43.216;27.904;2023-05-18T05:44:19;11.40;;;3.38;;
67798;SDS011;54596;43.216;27.904;2023-05-18T05:46:45;13.32;;;3.53;;
67798;SDS011;54596;43.216;27.904;2023-05-18T05:49:11;13.40;;;3.10;;
67798;SDS011;54596;43.216;27.904;2023-05-18T05:51:36;11.15;;;3.47;;
67798;SDS011;54596;43.216;27.904;2023-05-18T05:54:02;16.00;;;3.50;;
67798;SDS011;54596;43.216;27.904;2023-05-18T05:56:28;15.55;;;3.50;;
67798;SDS011;54596;43.216;27.904;2023-05-18T05:58:53;11.40;;;3.03;;
67798;SDS011;54596;43.216;27.904;2023-05-18T06:01:19;15.60;;;3.30;;
67798;SDS011;54596;43.216;27.904;2023-05-18T06:03:45;12.45;;;3.67;;
67798;SDS011;54596;43.216;27.904;2023-05-18T06:06:11;15.93;;;3.75;;
67798;SDS011;54596;43.216;27.904;2023-05-18T06:08:37;10.93;;;3.40;;
67798;SDS011;54596;43.216;27.904;2023-05-18T06:11:02;14.45;;;3.58;;
67798;SDS011;54596;43.216;27.904;2023-05-18T06:13:28;13.70;;;3.40;;
67798;SDS011;54596;43.216;27.904;2023-05-18T06:15:53;17.50;;;3.33;;
67798;SDS011;54596;43.216;27.904;2023-05-18T06:18:19;17.02;;;3.70;;
67798;SDS011;54596;43.216;27.904;2023-05-18T06:20:44;14.10;;;3.40;;
67798;SDS011;54596;43.216;27.904;2023-05-18T06:23:10;11.77;;;3.50;;
67798;SDS011;54596;43.216;27.904;2023-05-18T06:25:35;15.65;;;3.67;;
67798;SDS011;54596;43.216;27.904;2023-05-18T06:28:01;11.35;;;3.10;;
67798;SDS011;54596;43.216;27.904;2023-05-18T06:30:26;12.60;;;3.33;;
67798;SDS011;54596;43.216;27.904;2023-05-18T06:32:52;11.75;;;3.38;;
67798;SDS011;54596;43.216;27.904;2023-05-18T06:35:17;17.52;;;4.20;;
67798;SDS011;54596;43.216;27.904;2023-05-18T06:37:43;14.43;;;4.28;;
67798;SDS011;54596;43.216;27.904;2023-05-18T06:40:08;12.57;;;3.90;;
67798;SDS011;54596;43.216;27.904;2023-05-18T06:42:34;14.73;;;4.25;;
67798;SDS011;54596;43.216;27.904;2023-05-18T06:45:00;12.30;;;4.43;;
67798;SDS011;54596;43.216;27.904;2023-05-18T06:47:26;11.40;;;3.80;;
67798;SDS011;54596;43.216;27.904;2023-05-18T06:49:52;15.65;;;4.18;;
67798;SDS011;54596;43.216;27.904;2023-05-18T06:52:17;11.60;;;3.83;;
67798;SDS011;54596;43.216;27.904;2023-05-18T06:54:43;14.07;;;3.60;;
67798;SDS011;54596;43.216;27.904;2023-05-18T06:57:08;16.40;;;4.07;;
67798;SDS011;54596;43.216;27.904;2023-05-18T06:59:34;14.90;;;3.90;;
67798;SDS011;54596;43.216;27.904;2023-05-18T07:01:59;10.50;;;3.83;;
67798;SDS011;54596;43.216;27.904;2023-05-18T07:04:25;12.57;;;3.38;;
67798;SDS011;54596;43.216;27.904;2023-05-18T07:06:50;10.00;;;3.50;;
67798;SDS011;54596;43.216;27.904;2023-05-18T07:09:17;12.93;;;4.00;;
67798;SDS011;54596;43.216;27.904;2023-05-18T07:11:43;13.40;;;3.70;;
67798;SDS011;54596;43.216;27.904;2023-05-18T07:14:09;14.93;;;4.00;;
67798;SDS011;54596;43.216;27.904;2023-05-18T07:16:35;10.27;;;3.80;;
67798;SDS011;54596;43.216;27.904;2023-05-18T07:19:01;14.85;;;4.28;;
67798;SDS011;54596;43.216;27.904;2023-05-18T07:21:27;11.55;;;4.00;;
67798;SDS011;54596;43.216;27.904;2023-05-18T07:23:53;12.98;;;3.97;;
67798;SDS011;54596;43.216;27.904;2023-05-18T07:26:18;13.40;;;3.90;;
67798;SDS011;54596;43.216;27.904;2023-05-18T07:28:44;13.43;;;4.57;;
67798;SDS011;54596;43.216;27.904;2023-05-18T07:31:10;19.08;;;5.65;;
67798;SDS011;54596;43.216;27.904;2023-05-18T07:33:35;14.20;;;4.85;;
67798;SDS011;54596;43.216;27.904;2023-05-18T07:36:01;13.23;;;4.63;;
67798;SDS011;54596;43.216;27.904;2023-05-18T07:38:26;15.27;;;4.72;;
67798;SDS011;54596;43.216;27.904;2023-05-18T07:40:52;12.45;;;4.82;;
67798;SDS011;54596;43.216;27.904;2023-05-18T07:43:17;10.65;;;4.60;;
67798;SDS011;54596;43.216;27.904;2023-05-18T07:45:43;13.93;;;5.05;;
67798;SDS011;54596;43.216;27.904;2023-05-18T07:48:08;13.90;;;4.90;;
67798;SDS011;54596;43.216;27.904;2023-05-18T07:50:34;10.70;;;4.82;;
67798;SDS011;54596;43.216;27.904;2023-05-18T07:53:00;15.10;;;5.22;;
67798;SDS011;54596;43.216;27.904;2023-05-18T07:55:26;15.63;;;5.28;;
67798;SDS011;54596;43.216;27.904;2023-05-18T07:57:51;14.98;;;5.68;;
67798;SDS011;54596;43.216;27.904;2023-05-18T08:00:17;12.82;;;5.65;;
67798;SDS011;54596;43.216;27.904;2023-05-18T08:02:43;13.20;;;5.50;;
67798;SDS011;54596;43.216;27.904;2023-05-18T08:05:09;12.75;;;5.97;;
67798;SDS011;54596;43.216;27.904;2023-05-18T08:07:35;13.20;;;5.30;;
67798;SDS011;54596;43.216;27.904;2023-05-18T08:10:01;13.98;;;5.53;;
67798;SDS011;54596;43.216;27.904;2023-05-18T08:12:26;13.25;;;5.80;;
67798;SDS011;54596;43.216;27.904;2023-05-18T08:14:54;16.58;;;6.50;;
67798;SDS011;54596;43.216;27.904;2023-05-18T08:17:20;15.13;;;6.18;;
67798;SDS011;54596;43.216;27.904;2023-05-18T08:19:45;20.33;;;8.25;;
67798;SDS011;54596;43.216;27.904;2023-05-18T08:22:13;19.42;;;7.15;;
67798;SDS011;54596;43.216;27.904;2023-05-18T08:24:38;15.63;;;6.30;;
67798;SDS011;54596;43.216;27.904;2023-05-18T08:27:04;17.48;;;7.22;;
67798;SDS011;54596;43.216;27.904;2023-05-18T08:29:32;16.33;;;5.03;;
67798;SDS011;54596;43.216;27.904;2023-05-18T08:31:58;19.17;;;8.05;;
67798;SDS011;54596;43.216;27.904;2023-05-18T08:34:23;15.93;;;6.40;;
67798;SDS011;54596;43.216;27.904;2023-05-18T08:36:49;14.95;;;5.55;;
67798;SDS011;54596;43.216;27.904;2023-05-18T08:39:14;15.40;;;6.50;;
67798;SDS011;54596;43.216;27.904;2023-05-18T08:44:14;15.45;;;5.97;;
67798;SDS011;54596;43.216;27.904;2023-05-18T08:46:42;14.20;;;6.70;;
67798;SDS011;54596;43.216;27.904;2023-05-18T08:49:14;14.25;;;6.20;;
67798;SDS011;54596;43.216;27.904;2023-05-18T08:51:44;15.70;;;7.20;;
67798;SDS011;54596;43.216;27.904;2023-05-18T08:54:10;23.77;;;14.32;;
67798;SDS011;54596;43.216;27.904;2023-05-18T08:56:43;21.40;;;10.30;;
67798;SDS011;54596;43.216;27.904;2023-05-18T08:59:10;18.10;;;7.55;;
67798;SDS011;54596;43.216;27.904;2023-05-18T09:01:38;18.73;;;7.57;;
67798;SDS011;54596;43.216;27.904;2023-05-18T09:04:05;16.88;;;8.20;;
67798;SDS011;54596;43.216;27.904;2023-05-18T09:06:31;24.75;;;14.95;;
67798;SDS011;54596;43.216;27.904;2023-05-18T09:08:57;19.75;;;9.98;;
67798;SDS011;54596;43.216;27.904;2023-05-18T09:11:24;27.45;;;14.85;;
67798;SDS011;54596;43.216;27.904;2023-05-18T09:13:50;23.20;;;12.10;;
67798;SDS011;54596;43.216;27.904;2023-05-18T09:16:16;19.33;;;9.63;;
67798;SDS011;54596;43.216;27.904;2023-05-18T09:18:42;22.80;;;11.05;;
67798;SDS011;54596;43.216;27.904;2023-05-18T09:21:08;24.33;;;11.07;;
67798;SDS011;54596;43.216;27.904;2023-05-18T09:23:34;26.08;;;11.38;;
67798;SDS011;54596;43.216;27.904;2023-05-18T09:26:01;20.92;;;10.82;;
67798;SDS011;54596;43.216;27.904;2023-05-18T09:28:35;23.33;;;11.63;;
67798;SDS011;54596;43.216;27.904;2023-05-18T09:31:09;24.58;;;14.65;;
67798;SDS011;54596;43.216;27.904;2023-05-18T09:33:41;23.73;;;13.60;;
67798;SDS011;54596;43.216;27.904;2023-05-18T09:36:09;20.50;;;10.27;;
67798;SDS011;54596;43.216;27.904;2023-05-18T09:38:38;22.20;;;11.82;;
67798;SDS011;54596;43.216;27.904;2023-05-18T09:41:10;21.95;;;10.88;;
67798;SDS011;54596;43.216;27.904;2023-05-18T09:43:48;15.00;;;9.02;;
67798;SDS011;54596;43.216;27.904;2023-05-18T09:46:15;18.92;;;9.23;;
67798;SDS011;54596;43.216;27.904;2023-05-18T09:48:44;19.67;;;10.00;;
67798;SDS011;54596;43.216;27.904;2023-05-18T09:51:11;19.42;;;11.18;;
67798;SDS011;54596;43.216;27.904;2023-05-18T09:53:41;20.90;;;11.32;;
67798;SDS011;54596;43.216;27.904;2023-05-18T09:56:06;16.63;;;9.98;;
67798;SDS011;54596;43.216;27.904;2023-05-18T09:58:36;18.38;;;9.55;;
67798;SDS011;54596;43.216;27.904;2023-05-18T10:01:03;17.15;;;9.65;;
67798;SDS011;54596;43.216;27.904;2023-05-18T10:03:36;19.35;;;10.77;;
67798;SDS011;54596;43.216;27.904;2023-05-18T10:06:05;19.33;;;10.25;;
67798;SDS011;54596;43.216;27.904;2023-05-18T10:08:33;20.40;;;12.00;;
67798;SDS011;54596;43.216;27.904;2023-05-18T10:10:59;19.23;;;8.68;;
67798;SDS011;54596;43.216;27.904;2023-05-18T10:13:26;19.10;;;9.70;;
67798;SDS011;54596;43.216;27.904;2023-05-18T10:15:57;20.05;;;10.52;;
67798;SDS011;54596;43.216;27.904;2023-05-18T10:18:27;25.02;;;13.20;;
67798;SDS011;54596;43.216;27.904;2023-05-18T10:20:54;18.73;;;8.85;;
67798;SDS011;54596;43.216;27.904;2023-05-18T10:23:26;16.83;;;10.20;;
67798;SDS011;54596;43.216;27.904;2023-05-18T10:25:54;22.58;;;13.48;;
67798;SDS011;54596;43.216;27.904;2023-05-18T10:28:22;17.15;;;9.10;;
67798;SDS011;54596;43.216;27.904;2023-05-18T10:30:53;19.40;;;11.20;;
67798;SDS011;54596;43.216;27.904;2023-05-18T10:33:20;20.10;;;10.45;;
67798;SDS011;54596;43.216;27.904;2023-05-18T10:35:47;19.80;;;10.90;;
67798;SDS011;54596;43.216;27.904;2023-05-18T10:38:21;19.95;;;10.95;;
67798;SDS011;54596;43.216;27.904;2023-05-18T10:40:50;20.17;;;11.82;;
67798;SDS011;54596;43.216;27.904;2023-05-18T10:43:17;23.73;;;13.30;;
67798;SDS011;54596;43.216;27.904;2023-05-18T10:45:46;22.50;;;13.20;;
67798;SDS011;54596;43.216;27.904;2023-05-18T10:48:14;16.63;;;9.65;;
67798;SDS011;54596;43.216;27.904;2023-05-18T10:50:41;20.55;;;8.15;;
67798;SDS011;54596;43.216;27.904;2023-05-18T10:53:07;19.08;;;8.93;;
67798;SDS011;54596;43.216;27.904;2023-05-18T10:55:34;28.00;;;18.95;;
67798;SDS011;54596;43.216;27.904;2023-05-18T10:58:02;21.15;;;11.60;;
67798;SDS011;54596;43.216;27.904;2023-05-18T11:00:33;21.63;;;10.90;;
67798;SDS011;54596;43.216;27.904;2023-05-18T11:03:01;18.85;;;10.55;;
67798;SDS011;54596;43.216;27.904;2023-05-18T11:05:27;22.77;;;11.57;;
67798;SDS011;54596;43.216;27.904;2023-05-18T11:08:00;25.38;;;14.18;;
67798;SDS011;54596;43.216;27.904;2023-05-18T11:13:05;29.23;;;19.17;;
67798;SDS011;54596;43.216;27.904;2023-05-18T11:18:15;27.80;;;19.60;;
67798;SDS011;54596;43.216;27.904;2023-05-18T11:20:42;31.17;;;20.48;;
67798;SDS011;54596;43.216;27.904;2023-05-18T11:23:09;36.88;;;22.45;;
67798;SDS011;54596;43.216;27.904;2023-05-18T11:25:35;39.42;;;22.90;;
67798;SDS011;54596;43.216;27.904;2023-05-18T11:28:03;33.55;;;21.85;;
67798;SDS011;54596;43.216;27.904;2023-05-18T11:30:43;30.83;;;19.40;;
67798;SDS011;54596;43.216;27.904;2023-05-18T11:33:24;24.38;;;17.38;;
67798;SDS011;54596;43.216;27.904;2023-05-18T11:38:46;30.17;;;19.17;;
67798;SDS011;54596;43.216;27.904;2023-05-18T11:47:13;30.17;;;19.98;;
67798;SDS011;54596;43.216;27.904;2023-05-18T11:49:42;26.92;;;16.55;;
67798;SDS011;54596;43.216;27.904;2023-05-18T11:52:14;25.27;;;15.48;;
67798;SDS011;54596;43.216;27.904;2023-05-18T11:57:14;21.67;;;13.27;;
67798;SDS011;54596;43.216;27.904;2023-05-18T11:59:47;22.90;;;12.85;;
67798;SDS011;54596;43.216;27.904;2023-05-18T12:02:22;23.20;;;11.55;;
67798;SDS011;54596;43.216;27.904;2023-05-18T12:04:58;20.85;;;11.88;;
67798;SDS011;54596;43.216;27.904;2023-05-18T12:07:25;18.38;;;10.43;;
67798;SDS011;54596;43.216;27.904;2023-05-18T12:09:56;18.48;;;10.77;;
67798;SDS011;54596;43.216;27.904;2023-05-18T12:12:26;19.10;;;10.85;;
67798;SDS011;54596;43.216;27.904;2023-05-18T12:15:13;18.80;;;10.88;;
67798;SDS011;54596;43.216;27.904;2023-05-18T12:17:41;18.85;;;8.13;;
67798;SDS011;54596;43.216;27.904;2023-05-18T12:20:18;18.10;;;7.60;;
67798;SDS011;54596;43.216;27.904;2023-05-18T12:22:45;16.67;;;7.75;;
67798;SDS011;54596;43.216;27.904;2023-05-18T12:25:15;15.77;;;7.32;;
67798;SDS011;54596;43.216;27.904;2023-05-18T12:27:42;17.45;;;7.57;;
67798;SDS011;54596;43.216;27.904;2023-05-18T12:30:09;18.70;;;7.53;;
67798;SDS011;54596;43.216;27.904;2023-05-18T12:32:36;18.63;;;8.27;;
67798;SDS011;54596;43.216;27.904;2023-05-18T12:35:02;19.75;;;8.20;;
67798;SDS011;54596;43.216;27.904;2023-05-18T12:37:30;21.27;;;8.20;;
67798;SDS011;54596;43.216;27.904;2023-05-18T12:39:55;16.05;;;8.10;;
67798;SDS011;54596;43.216;27.904;2023-05-18T12:42:21;28.73;;;9.45;;
67798;SDS011;54596;43.216;27.904;2023-05-18T12:44:46;18.60;;;7.70;;
67798;SDS011;54596;43.216;27.904;2023-05-18T12:47:14;18.35;;;8.50;;
67798;SDS011;54596;43.216;27.904;2023-05-18T12:49:40;19.90;;;8.25;;
67798;SDS011;54596;43.216;27.904;2023-05-18T12:52:08;22.30;;;12.90;;
67798;SDS011;54596;43.216;27.904;2023-05-18T12:54:46;20.05;;;9.15;;
67798;SDS011;54596;43.216;27.904;2023-05-18T12:57:34;22.63;;;8.88;;
67798;SDS011;54596;43.216;27.904;2023-05-18T13:00:01;21.10;;;9.05;;
67798;SDS011;54596;43.216;27.904;2023-05-18T13:05:00;17.75;;;9.25;;
67798;SDS011;54596;43.216;27.904;2023-05-18T13:07:26;20.20;;;10.60;;
67798;SDS011;54596;43.216;27.904;2023-05-18T13:09:51;29.35;;;20.20;;
67798;SDS011;54596;43.216;27.904;2023-05-18T13:12:33;18.85;;;7.57;;
67798;SDS011;54596;43.216;27.904;2023-05-18T13:15:12;17.30;;;9.10;;
67798;SDS011;54596;43.216;27.904;2023-05-18T13:20:38;21.23;;;8.60;;
67798;SDS011;54596;43.216;27.904;2023-05-18T13:23:04;16.98;;;7.47;;
67798;SDS011;54596;43.216;27.904;2023-05-18T13:25:32;16.38;;;7.40;;
67798;SDS011;54596;43.216;27.904;2023-05-18T13:27:58;16.80;;;7.40;;
67798;SDS011;54596;43.216;27.904;2023-05-18T13:30:23;14.82;;;7.35;;
67798;SDS011;54596;43.216;27.904;2023-05-18T13:32:49;20.30;;;7.90;;
67798;SDS011;54596;43.216;27.904;2023-05-18T13:35:16;15.70;;;6.95;;
67798;SDS011;54596;43.216;27.904;2023-05-18T13:37:44;21.60;;;8.02;;
67798;SDS011;54596;43.216;27.904;2023-05-18T13:40:11;20.13;;;7.47;;
67798;SDS011;54596;43.216;27.904;2023-05-18T13:42:40;16.38;;;7.38;;
67798;SDS011;54596;43.216;27.904;2023-05-18T13:45:06;20.38;;;8.43;;
67798;SDS011;54596;43.216;27.904;2023-05-18T13:47:32;16.30;;;7.32;;
67798;SDS011;54596;43.216;27.904;2023-05-18T13:49:57;15.68;;;7.28;;
67798;SDS011;54596;43.216;27.904;2023-05-18T13:52:23;20.45;;;7.40;;
67798;SDS011;54596;43.216;27.904;2023-05-18T13:54:48;18.67;;;7.22;;
67798;SDS011;54596;43.216;27.904;2023-05-18T13:57:13;21.33;;;7.47;;
67798;SDS011;54596;43.216;27.904;2023-05-18T13:59:39;21.52;;;7.15;;
67798;SDS011;54596;43.216;27.904;2023-05-18T14:02:05;14.57;;;6.95;;
67798;SDS011;54596;43.216;27.904;2023-05-18T14:04:31;17.38;;;7.20;;
67798;SDS011;54596;43.216;27.904;2023-05-18T14:06:57;17.38;;;6.75;;
67798;SDS011;54596;43.216;27.904;2023-05-18T14:09:23;16.38;;;8.07;;
67798;SDS011;54596;43.216;27.904;2023-05-18T14:11:52;15.65;;;7.38;;
67798;SDS011;54596;43.216;27.904;2023-05-18T14:14:18;26.98;;;13.73;;
67798;SDS011;54596;43.216;27.904;2023-05-18T14:16:43;30.08;;;18.65;;
67798;SDS011;54596;43.216;27.904;2023-05-18T14:19:09;23.23;;;10.68;;
67798;SDS011;54596;43.216;27.904;2023-05-18T14:21:35;26.90;;;9.75;;
67798;SDS011;54596;43.216;27.904;2023-05-18T14:24:00;22.65;;;9.43;;
67798;SDS011;54596;43.216;27.904;2023-05-18T14:26:28;21.55;;;9.70;;
67798;SDS011;54596;43.216;27.904;2023-05-18T14:28:53;20.50;;;8.38;;
67798;SDS011;54596;43.216;27.904;2023-05-18T14:31:21;19.42;;;8.77;;
67798;SDS011;54596;43.216;27.904;2023-05-18T14:33:46;21.40;;;9.13;;
67798;SDS011;54596;43.216;27.904;2023-05-18T14:36:12;19.17;;;8.98;;
67798;SDS011;54596;43.216;27.904;2023-05-18T14:38:37;23.45;;;9.35;;
67798;SDS011;54596;43.216;27.904;2023-05-18T14:41:03;19.75;;;9.45;;
67798;SDS011;54596;43.216;27.904;2023-05-18T14:43:28;28.75;;;9.75;;
67798;SDS011;54596;43.216;27.904;2023-05-18T14:45:57;24.90;;;8.88;;
67798;SDS011;54596;43.216;27.904;2023-05-18T14:48:23;21.02;;;9.98;;
67798;SDS011;54596;43.216;27.904;2023-05-18T14:50:48;20.42;;;8.73;;
67798;SDS011;54596;43.216;27.904;2023-05-18T14:53:13;21.25;;;8.27;;
67798;SDS011;54596;43.216;27.904;2023-05-18T14:55:39;18.08;;;8.73;;